sensor_id;sensor_type;location;lat;lon;timestamp;P1;durP1;ratioP1;P2;durP2;ratioP2
20154;SDS011;10238;49.556;10.956;2023-02-17T00:01:57;19.35;;;11.82;;
20154;SDS011;10238;49.556;10.956;2023-02-17T00:04:45;16.80;;;11.10;;
20154;SDS011;10238;49.556;10.956;2023-02-17T00:07:32;22.33;;;13.48;;
20154;SDS011;10238;49.556;10.956;2023-02-17T00:10:20;17.08;;;11.65;;
20154;SDS011;10238;49.556;10.956;2023-02-17T00:13:09;19.33;;;11.77;;
20154;SDS011;10238;49.556;10.956;2023-02-17T00:15:56;15.30;;;10.93;;
20154;SDS011;10238;49.556;10.956;2023-02-17T00:18:44;18.38;;;11.68;;
20154;SDS011;10238;49.556;10.956;2023-02-17T00:21:32;16.67;;;10.60;;
20154;SDS011;10238;49.556;10.956;2023-02-17T00:24:19;18.02;;;10.43;;
20154;SDS011;10238;49.556;10.956;2023-02-17T00:27:07;18.52;;;11.00;;
20154;SDS011;10238;49.556;10.956;2023-02-17T00:29:57;21.92;;;13.10;;
20154;SDS011;10238;49.556;10.956;2023-02-17T00:32:45;21.88;;;14.07;;
20154;SDS011;10238;49.556;10.956;2023-02-17T00:35:32;21.08;;;12.50;;
20154;SDS011;10238;49.556;10.956;2023-02-17T00:38:25;21.35;;;13.15;;
20154;SDS011;10238;49.556;10.956;2023-02-17T00:41:14;20.35;;;13.05;;
20154;SDS011;10238;49.556;10.956;2023-02-17T00:44:02;19.60;;;12.35;;
20154;SDS011;10238;49.556;10.956;2023-02-17T00:46:52;21.65;;;13.40;;
20154;SDS011;10238;49.556;10.956;2023-02-17T00:49:39;23.27;;;12.90;;
20154;SDS011;10238;49.556;10.956;2023-02-17T00:52:27;21.88;;;13.10;;
20154;SDS011;10238;49.556;10.956;2023-02-17T00:55:14;20.00;;;12.15;;
20154;SDS011;10238;49.556;10.956;2023-02-17T00:58:02;23.20;;;13.00;;
20154;SDS011;10238;49.556;10.956;2023-02-17T01:00:50;19.73;;;12.15;;
20154;SDS011;10238;49.556;10.956;2023-02-17T01:03:38;20.45;;;11.57;;
20154;SDS011;10238;49.556;10.956;2023-02-17T01:06:27;23.40;;;12.32;;
20154;SDS011;10238;49.556;10.956;2023-02-17T01:09:18;16.75;;;11.20;;
20154;SDS011;10238;49.556;10.956;2023-02-17T01:12:06;16.88;;;10.70;;
20154;SDS011;10238;49.556;10.956;2023-02-17T01:14:53;18.75;;;11.23;;
20154;SDS011;10238;49.556;10.956;2023-02-17T01:17:41;19.52;;;10.75;;
20154;SDS011;10238;49.556;10.956;2023-02-17T01:20:29;18.70;;;11.18;;
20154;SDS011;10238;49.556;10.956;2023-02-17T01:23:20;15.98;;;11.23;;
20154;SDS011;10238;49.556;10.956;2023-02-17T01:26:11;15.68;;;10.30;;
20154;SDS011;10238;49.556;10.956;2023-02-17T01:29:00;20.40;;;10.90;;
20154;SDS011;10238;49.556;10.956;2023-02-17T01:31:50;17.38;;;10.43;;
20154;SDS011;10238;49.556;10.956;2023-02-17T01:34:37;13.32;;;10.05;;
20154;SDS011;10238;49.556;10.956;2023-02-17T01:37:26;14.82;;;9.93;;
20154;SDS011;10238;49.556;10.956;2023-02-17T01:40:14;14.43;;;9.95;;
20154;SDS011;10238;49.556;10.956;2023-02-17T01:43:08;16.05;;;9.55;;
20154;SDS011;10238;49.556;10.956;2023-02-17T01:46:02;14.93;;;9.95;;
20154;SDS011;10238;49.556;10.956;2023-02-17T01:48:52;16.92;;;10.32;;
20154;SDS011;10238;49.556;10.956;2023-02-17T01:51:39;14.73;;;9.73;;
20154;SDS011;10238;49.556;10.956;2023-02-17T01:54:32;17.67;;;10.13;;
20154;SDS011;10238;49.556;10.956;2023-02-17T01:57:26;15.55;;;9.80;;
20154;SDS011;10238;49.556;10.956;2023-02-17T02:00:21;15.05;;;10.02;;
20154;SDS011;10238;49.556;10.956;2023-02-17T02:03:12;15.82;;;9.88;;
20154;SDS011;10238;49.556;10.956;2023-02-17T02:06:02;15.00;;;9.65;;
20154;SDS011;10238;49.556;10.956;2023-02-17T02:08:58;14.32;;;8.57;;
20154;SDS011;10238;49.556;10.956;2023-02-17T02:11:53;16.00;;;9.45;;
20154;SDS011;10238;49.556;10.956;2023-02-17T02:14:40;15.30;;;8.68;;
20154;SDS011;10238;49.556;10.956;2023-02-17T02:17:31;12.20;;;8.57;;
20154;SDS011;10238;49.556;10.956;2023-02-17T02:20:33;12.23;;;8.65;;
20154;SDS011;10238;49.556;10.956;2023-02-17T02:23:57;13.60;;;8.50;;
20154;SDS011;10238;49.556;10.956;2023-02-17T02:27:27;15.65;;;8.18;;
20154;SDS011;10238;49.556;10.956;2023-02-17T02:30:49;10.25;;;7.80;;
20154;SDS011;10238;49.556;10.956;2023-02-17T02:33:58;15.32;;;8.20;;
20154;SDS011;10238;49.556;10.956;2023-02-17T02:36:53;12.00;;;8.30;;
20154;SDS011;10238;49.556;10.956;2023-02-17T02:39:50;11.02;;;7.63;;
20154;SDS011;10238;49.556;10.956;2023-02-17T02:42:40;9.90;;;6.68;;
20154;SDS011;10238;49.556;10.956;2023-02-17T02:45:30;11.80;;;7.30;;
20154;SDS011;10238;49.556;10.956;2023-02-17T02:48:19;12.63;;;7.57;;
20154;SDS011;10238;49.556;10.956;2023-02-17T02:54:31;12.50;;;8.13;;
20154;SDS011;10238;49.556;10.956;2023-02-17T02:57:36;11.02;;;7.38;;
20154;SDS011;10238;49.556;10.956;2023-02-17T03:00:36;9.68;;;6.97;;
20154;SDS011;10238;49.556;10.956;2023-02-17T03:03:39;12.00;;;7.78;;
20154;SDS011;10238;49.556;10.956;2023-02-17T03:06:36;11.02;;;7.68;;
20154;SDS011;10238;49.556;10.956;2023-02-17T03:09:32;11.88;;;7.68;;
20154;SDS011;10238;49.556;10.956;2023-02-17T03:12:21;11.50;;;7.15;;
20154;SDS011;10238;49.556;10.956;2023-02-17T03:15:13;9.85;;;6.95;;
20154;SDS011;10238;49.556;10.956;2023-02-17T03:18:08;11.10;;;7.68;;
20154;SDS011;10238;49.556;10.956;2023-02-17T03:20:56;9.77;;;6.93;;
20154;SDS011;10238;49.556;10.956;2023-02-17T03:23:54;8.75;;;7.03;;
20154;SDS011;10238;49.556;10.956;2023-02-17T03:26:41;8.98;;;7.03;;
20154;SDS011;10238;49.556;10.956;2023-02-17T03:29:28;9.75;;;6.90;;
20154;SDS011;10238;49.556;10.956;2023-02-17T03:32:16;13.32;;;7.22;;
20154;SDS011;10238;49.556;10.956;2023-02-17T03:35:04;11.63;;;7.53;;
20154;SDS011;10238;49.556;10.956;2023-02-17T03:37:52;9.48;;;6.85;;
20154;SDS011;10238;49.556;10.956;2023-02-17T03:40:40;14.25;;;7.72;;
20154;SDS011;10238;49.556;10.956;2023-02-17T03:43:28;11.13;;;6.63;;
20154;SDS011;10238;49.556;10.956;2023-02-17T03:46:16;8.65;;;6.25;;
20154;SDS011;10238;49.556;10.956;2023-02-17T03:49:04;10.77;;;6.63;;
20154;SDS011;10238;49.556;10.956;2023-02-17T03:51:52;10.07;;;6.80;;
20154;SDS011;10238;49.556;10.956;2023-02-17T03:54:39;8.75;;;6.15;;
20154;SDS011;10238;49.556;10.956;2023-02-17T03:57:28;9.80;;;6.90;;
20154;SDS011;10238;49.556;10.956;2023-02-17T04:00:16;10.00;;;7.30;;
20154;SDS011;10238;49.556;10.956;2023-02-17T04:03:04;10.32;;;6.40;;
20154;SDS011;10238;49.556;10.956;2023-02-17T04:05:52;10.18;;;6.57;;
20154;SDS011;10238;49.556;10.956;2023-02-17T04:08:40;8.23;;;5.97;;
20154;SDS011;10238;49.556;10.956;2023-02-17T04:11:28;10.15;;;6.85;;
20154;SDS011;10238;49.556;10.956;2023-02-17T04:14:17;11.13;;;7.05;;
20154;SDS011;10238;49.556;10.956;2023-02-17T04:17:04;9.10;;;6.43;;
20154;SDS011;10238;49.556;10.956;2023-02-17T04:19:52;11.20;;;6.38;;
20154;SDS011;10238;49.556;10.956;2023-02-17T04:22:39;8.80;;;6.25;;
20154;SDS011;10238;49.556;10.956;2023-02-17T04:25:27;8.07;;;5.47;;
20154;SDS011;10238;49.556;10.956;2023-02-17T04:28:15;8.77;;;6.65;;
20154;SDS011;10238;49.556;10.956;2023-02-17T04:31:05;9.93;;;5.95;;
20154;SDS011;10238;49.556;10.956;2023-02-17T04:33:53;9.02;;;5.78;;
20154;SDS011;10238;49.556;10.956;2023-02-17T04:36:41;6.35;;;4.95;;
20154;SDS011;10238;49.556;10.956;2023-02-17T04:39:29;12.27;;;5.97;;
20154;SDS011;10238;49.556;10.956;2023-02-17T04:42:16;8.07;;;5.07;;
20154;SDS011;10238;49.556;10.956;2023-02-17T04:45:04;10.45;;;5.47;;
20154;SDS011;10238;49.556;10.956;2023-02-17T04:47:54;7.32;;;6.00;;
20154;SDS011;10238;49.556;10.956;2023-02-17T04:50:41;9.75;;;5.20;;
20154;SDS011;10238;49.556;10.956;2023-02-17T04:53:28;8.85;;;5.25;;
20154;SDS011;10238;49.556;10.956;2023-02-17T04:56:16;8.55;;;5.60;;
20154;SDS011;10238;49.556;10.956;2023-02-17T04:59:03;9.52;;;5.32;;
20154;SDS011;10238;49.556;10.956;2023-02-17T05:01:51;12.43;;;5.65;;
20154;SDS011;10238;49.556;10.956;2023-02-17T05:04:40;8.85;;;5.35;;
20154;SDS011;10238;49.556;10.956;2023-02-17T05:07:30;8.48;;;5.43;;
20154;SDS011;10238;49.556;10.956;2023-02-17T05:10:19;7.40;;;4.88;;
20154;SDS011;10238;49.556;10.956;2023-02-17T05:13:08;10.20;;;5.10;;
20154;SDS011;10238;49.556;10.956;2023-02-17T05:15:56;6.60;;;5.18;;
20154;SDS011;10238;49.556;10.956;2023-02-17T05:18:44;9.95;;;6.15;;
20154;SDS011;10238;49.556;10.956;2023-02-17T05:21:33;8.02;;;4.75;;
20154;SDS011;10238;49.556;10.956;2023-02-17T05:24:21;12.77;;;6.20;;
20154;SDS011;10238;49.556;10.956;2023-02-17T05:27:09;10.35;;;6.28;;
20154;SDS011;10238;49.556;10.956;2023-02-17T05:29:57;10.27;;;5.57;;
20154;SDS011;10238;49.556;10.956;2023-02-17T05:32:45;8.90;;;5.47;;
20154;SDS011;10238;49.556;10.956;2023-02-17T05:35:32;8.73;;;4.75;;
20154;SDS011;10238;49.556;10.956;2023-02-17T05:38:22;9.10;;;5.00;;
20154;SDS011;10238;49.556;10.956;2023-02-17T05:41:09;6.30;;;4.22;;
20154;SDS011;10238;49.556;10.956;2023-02-17T05:43:57;8.70;;;4.45;;
20154;SDS011;10238;49.556;10.956;2023-02-17T05:46:44;6.35;;;4.05;;
20154;SDS011;10238;49.556;10.956;2023-02-17T05:49:32;6.57;;;4.30;;
20154;SDS011;10238;49.556;10.956;2023-02-17T05:52:19;8.18;;;3.80;;
20154;SDS011;10238;49.556;10.956;2023-02-17T05:55:08;4.60;;;3.47;;
20154;SDS011;10238;49.556;10.956;2023-02-17T05:57:56;5.35;;;3.72;;
20154;SDS011;10238;49.556;10.956;2023-02-17T06:00:43;7.68;;;3.78;;
20154;SDS011;10238;49.556;10.956;2023-02-17T06:03:31;6.22;;;3.72;;
20154;SDS011;10238;49.556;10.956;2023-02-17T06:06:19;5.57;;;4.20;;
20154;SDS011;10238;49.556;10.956;2023-02-17T06:09:07;6.90;;;3.88;;
20154;SDS011;10238;49.556;10.956;2023-02-17T06:11:56;6.50;;;3.65;;
20154;SDS011;10238;49.556;10.956;2023-02-17T06:14:44;6.18;;;3.05;;
20154;SDS011;10238;49.556;10.956;2023-02-17T06:17:32;6.18;;;3.80;;
20154;SDS011;10238;49.556;10.956;2023-02-17T06:20:19;6.45;;;3.90;;
20154;SDS011;10238;49.556;10.956;2023-02-17T06:23:07;7.70;;;3.80;;
20154;SDS011;10238;49.556;10.956;2023-02-17T06:25:56;6.97;;;4.03;;
20154;SDS011;10238;49.556;10.956;2023-02-17T06:28:45;7.45;;;3.58;;
20154;SDS011;10238;49.556;10.956;2023-02-17T06:31:35;6.78;;;3.63;;
20154;SDS011;10238;49.556;10.956;2023-02-17T06:34:26;8.10;;;3.85;;
20154;SDS011;10238;49.556;10.956;2023-02-17T06:37:13;7.13;;;3.63;;
20154;SDS011;10238;49.556;10.956;2023-02-17T06:40:01;5.55;;;3.85;;
20154;SDS011;10238;49.556;10.956;2023-02-17T06:42:49;5.93;;;3.28;;
20154;SDS011;10238;49.556;10.956;2023-02-17T06:45:38;8.82;;;4.13;;
20154;SDS011;10238;49.556;10.956;2023-02-17T06:48:25;4.18;;;3.03;;
20154;SDS011;10238;49.556;10.956;2023-02-17T06:51:13;5.30;;;3.40;;
20154;SDS011;10238;49.556;10.956;2023-02-17T06:54:00;5.53;;;3.72;;
20154;SDS011;10238;49.556;10.956;2023-02-17T06:56:48;7.22;;;3.35;;
20154;SDS011;10238;49.556;10.956;2023-02-17T06:59:36;6.60;;;3.47;;
20154;SDS011;10238;49.556;10.956;2023-02-17T07:02:24;5.13;;;3.63;;
20154;SDS011;10238;49.556;10.956;2023-02-17T07:05:13;5.50;;;3.03;;
20154;SDS011;10238;49.556;10.956;2023-02-17T07:08:00;7.20;;;3.53;;
20154;SDS011;10238;49.556;10.956;2023-02-17T07:10:48;10.70;;;3.45;;
20154;SDS011;10238;49.556;10.956;2023-02-17T07:13:36;9.05;;;3.75;;
20154;SDS011;10238;49.556;10.956;2023-02-17T07:16:24;4.38;;;3.42;;
20154;SDS011;10238;49.556;10.956;2023-02-17T07:19:13;5.72;;;3.10;;
20154;SDS011;10238;49.556;10.956;2023-02-17T07:22:00;4.20;;;3.15;;
20154;SDS011;10238;49.556;10.956;2023-02-17T07:24:48;5.30;;;3.15;;
20154;SDS011;10238;49.556;10.956;2023-02-17T07:27:35;4.53;;;3.17;;
20154;SDS011;10238;49.556;10.956;2023-02-17T07:30:23;3.67;;;2.60;;
20154;SDS011;10238;49.556;10.956;2023-02-17T07:33:11;5.20;;;3.00;;
20154;SDS011;10238;49.556;10.956;2023-02-17T07:36:03;5.45;;;3.03;;
20154;SDS011;10238;49.556;10.956;2023-02-17T07:38:52;4.55;;;2.70;;
20154;SDS011;10238;49.556;10.956;2023-02-17T07:41:41;3.53;;;2.70;;
20154;SDS011;10238;49.556;10.956;2023-02-17T07:44:28;3.78;;;2.72;;
20154;SDS011;10238;49.556;10.956;2023-02-17T07:47:16;5.00;;;2.75;;
20154;SDS011;10238;49.556;10.956;2023-02-17T07:50:04;4.97;;;2.80;;
20154;SDS011;10238;49.556;10.956;2023-02-17T07:52:56;3.20;;;2.90;;
20154;SDS011;10238;49.556;10.956;2023-02-17T07:55:43;4.47;;;2.90;;
20154;SDS011;10238;49.556;10.956;2023-02-17T07:58:31;7.20;;;3.05;;
20154;SDS011;10238;49.556;10.956;2023-02-17T08:01:20;4.55;;;2.70;;
20154;SDS011;10238;49.556;10.956;2023-02-17T08:04:09;4.03;;;2.80;;
20154;SDS011;10238;49.556;10.956;2023-02-17T08:06:57;2.75;;;2.45;;
20154;SDS011;10238;49.556;10.956;2023-02-17T08:09:46;4.15;;;2.83;;
20154;SDS011;10238;49.556;10.956;2023-02-17T08:12:51;3.20;;;2.90;;
20154;SDS011;10238;49.556;10.956;2023-02-17T08:15:56;4.53;;;2.90;;
20154;SDS011;10238;49.556;10.956;2023-02-17T08:18:44;5.57;;;3.20;;
20154;SDS011;10238;49.556;10.956;2023-02-17T08:21:31;3.85;;;2.65;;
20154;SDS011;10238;49.556;10.956;2023-02-17T08:24:20;2.70;;;2.50;;
20154;SDS011;10238;49.556;10.956;2023-02-17T08:30:24;4.03;;;2.88;;
20154;SDS011;10238;49.556;10.956;2023-02-17T08:33:12;4.93;;;3.30;;
20154;SDS011;10238;49.556;10.956;2023-02-17T08:36:04;4.00;;;2.90;;
20154;SDS011;10238;49.556;10.956;2023-02-17T08:38:53;3.45;;;2.65;;
20154;SDS011;10238;49.556;10.956;2023-02-17T08:41:41;3.22;;;2.60;;
20154;SDS011;10238;49.556;10.956;2023-02-17T08:44:32;3.88;;;2.65;;
20154;SDS011;10238;49.556;10.956;2023-02-17T08:47:21;4.22;;;2.83;;
20154;SDS011;10238;49.556;10.956;2023-02-17T08:50:10;5.45;;;2.65;;
20154;SDS011;10238;49.556;10.956;2023-02-17T08:53:01;3.87;;;2.60;;
20154;SDS011;10238;49.556;10.956;2023-02-17T08:55:49;5.10;;;2.67;;
20154;SDS011;10238;49.556;10.956;2023-02-17T08:58:37;3.50;;;2.85;;
20154;SDS011;10238;49.556;10.956;2023-02-17T09:01:26;3.63;;;2.95;;
20154;SDS011;10238;49.556;10.956;2023-02-17T09:04:13;4.00;;;2.50;;
20154;SDS011;10238;49.556;10.956;2023-02-17T09:07:02;3.00;;;2.50;;
20154;SDS011;10238;49.556;10.956;2023-02-17T09:09:49;3.88;;;2.90;;
20154;SDS011;10238;49.556;10.956;2023-02-17T09:12:37;5.20;;;2.70;;
20154;SDS011;10238;49.556;10.956;2023-02-17T09:15:24;4.20;;;3.08;;
20154;SDS011;10238;49.556;10.956;2023-02-17T09:18:14;5.43;;;3.10;;
20154;SDS011;10238;49.556;10.956;2023-02-17T09:21:04;5.10;;;2.88;;
20154;SDS011;10238;49.556;10.956;2023-02-17T09:23:53;3.00;;;2.60;;
20154;SDS011;10238;49.556;10.956;2023-02-17T09:26:41;3.97;;;3.08;;
20154;SDS011;10238;49.556;10.956;2023-02-17T09:29:28;4.30;;;3.10;;
20154;SDS011;10238;49.556;10.956;2023-02-17T09:32:16;3.30;;;3.00;;
20154;SDS011;10238;49.556;10.956;2023-02-17T09:35:06;5.65;;;2.90;;
20154;SDS011;10238;49.556;10.956;2023-02-17T09:37:53;4.18;;;3.45;;
20154;SDS011;10238;49.556;10.956;2023-02-17T09:40:42;5.45;;;3.15;;
20154;SDS011;10238;49.556;10.956;2023-02-17T09:43:33;4.03;;;3.17;;
20154;SDS011;10238;49.556;10.956;2023-02-17T09:46:23;3.10;;;2.80;;
20154;SDS011;10238;49.556;10.956;2023-02-17T09:49:18;3.08;;;2.67;;
20154;SDS011;10238;49.556;10.956;2023-02-17T09:52:13;2.88;;;2.67;;
20154;SDS011;10238;49.556;10.956;2023-02-17T09:55:12;5.03;;;2.60;;
20154;SDS011;10238;49.556;10.956;2023-02-17T09:58:07;3.03;;;2.60;;
20154;SDS011;10238;49.556;10.956;2023-02-17T10:01:02;4.13;;;2.40;;
20154;SDS011;10238;49.556;10.956;2023-02-17T10:03:58;6.03;;;3.05;;
20154;SDS011;10238;49.556;10.956;2023-02-17T10:06:56;2.63;;;2.42;;
20154;SDS011;10238;49.556;10.956;2023-02-17T10:09:54;3.58;;;2.60;;
20154;SDS011;10238;49.556;10.956;2023-02-17T10:12:51;4.40;;;2.75;;
20154;SDS011;10238;49.556;10.956;2023-02-17T10:15:43;3.38;;;2.95;;
20154;SDS011;10238;49.556;10.956;2023-02-17T10:18:38;3.75;;;2.72;;
20154;SDS011;10238;49.556;10.956;2023-02-17T10:21:34;2.55;;;2.35;;
20154;SDS011;10238;49.556;10.956;2023-02-17T10:24:28;3.00;;;2.47;;
20154;SDS011;10238;49.556;10.956;2023-02-17T10:27:23;7.57;;;2.55;;
20154;SDS011;10238;49.556;10.956;2023-02-17T10:30:25;2.90;;;2.40;;
20154;SDS011;10238;49.556;10.956;2023-02-17T10:33:24;3.10;;;2.35;;
20154;SDS011;10238;49.556;10.956;2023-02-17T10:36:22;2.10;;;1.90;;
20154;SDS011;10238;49.556;10.956;2023-02-17T10:39:21;3.47;;;2.20;;
20154;SDS011;10238;49.556;10.956;2023-02-17T10:42:34;2.70;;;2.17;;
20154;SDS011;10238;49.556;10.956;2023-02-17T10:45:25;3.13;;;2.27;;
20154;SDS011;10238;49.556;10.956;2023-02-17T10:48:19;4.35;;;2.60;;
20154;SDS011;10238;49.556;10.956;2023-02-17T10:51:11;2.30;;;2.10;;
20154;SDS011;10238;49.556;10.956;2023-02-17T10:54:04;2.95;;;2.15;;
20154;SDS011;10238;49.556;10.956;2023-02-17T10:57:02;3.13;;;2.10;;
20154;SDS011;10238;49.556;10.956;2023-02-17T10:59:57;2.28;;;2.00;;
20154;SDS011;10238;49.556;10.956;2023-02-17T11:02:46;3.35;;;2.30;;
20154;SDS011;10238;49.556;10.956;2023-02-17T11:05:36;3.53;;;2.50;;
20154;SDS011;10238;49.556;10.956;2023-02-17T11:08:28;3.45;;;2.38;;
20154;SDS011;10238;49.556;10.956;2023-02-17T11:11:21;2.88;;;2.22;;
20154;SDS011;10238;49.556;10.956;2023-02-17T11:14:12;3.25;;;2.25;;
20154;SDS011;10238;49.556;10.956;2023-02-17T11:17:14;2.33;;;2.13;;
20154;SDS011;10238;49.556;10.956;2023-02-17T11:23:20;2.30;;;2.10;;
20154;SDS011;10238;49.556;10.956;2023-02-17T11:26:15;4.70;;;2.25;;
20154;SDS011;10238;49.556;10.956;2023-02-17T11:29:09;2.22;;;1.98;;
20154;SDS011;10238;49.556;10.956;2023-02-17T11:32:02;2.58;;;2.00;;
20154;SDS011;10238;49.556;10.956;2023-02-17T11:34:56;2.88;;;1.70;;
20154;SDS011;10238;49.556;10.956;2023-02-17T11:37:50;2.40;;;2.20;;
20154;SDS011;10238;49.556;10.956;2023-02-17T11:40:56;2.80;;;2.00;;
20154;SDS011;10238;49.556;10.956;2023-02-17T11:43:50;2.83;;;1.98;;
20154;SDS011;10238;49.556;10.956;2023-02-17T11:46:42;2.97;;;2.15;;
20154;SDS011;10238;49.556;10.956;2023-02-17T11:49:42;2.65;;;2.20;;
20154;SDS011;10238;49.556;10.956;2023-02-17T11:53:22;2.30;;;1.83;;
20154;SDS011;10238;49.556;10.956;2023-02-17T11:56:28;2.45;;;2.25;;
20154;SDS011;10238;49.556;10.956;2023-02-17T11:59:26;2.67;;;2.25;;
20154;SDS011;10238;49.556;10.956;2023-02-17T12:02:43;2.58;;;2.30;;
20154;SDS011;10238;49.556;10.956;2023-02-17T12:06:09;2.33;;;2.10;;
20154;SDS011;10238;49.556;10.956;2023-02-17T12:09:09;2.63;;;2.05;;
20154;SDS011;10238;49.556;10.956;2023-02-17T12:12:11;2.25;;;2.10;;
20154;SDS011;10238;49.556;10.956;2023-02-17T12:15:12;2.65;;;2.22;;
20154;SDS011;10238;49.556;10.956;2023-02-17T12:18:36;2.28;;;1.98;;
20154;SDS011;10238;49.556;10.956;2023-02-17T12:21:46;2.55;;;1.88;;
20154;SDS011;10238;49.556;10.956;2023-02-17T12:25:05;2.17;;;2.00;;
20154;SDS011;10238;49.556;10.956;2023-02-17T12:28:17;2.22;;;2.03;;
20154;SDS011;10238;49.556;10.956;2023-02-17T12:31:40;1.88;;;1.70;;
20154;SDS011;10238;49.556;10.956;2023-02-17T12:34:48;1.90;;;1.70;;
20154;SDS011;10238;49.556;10.956;2023-02-17T12:37:46;2.22;;;2.10;;
20154;SDS011;10238;49.556;10.956;2023-02-17T12:40:41;1.90;;;1.80;;
20154;SDS011;10238;49.556;10.956;2023-02-17T12:43:37;2.97;;;1.70;;
20154;SDS011;10238;49.556;10.956;2023-02-17T12:46:36;3.03;;;2.15;;
20154;SDS011;10238;49.556;10.956;2023-02-17T12:49:29;2.63;;;2.42;;
20154;SDS011;10238;49.556;10.956;2023-02-17T12:52:24;2.67;;;2.30;;
20154;SDS011;10238;49.556;10.956;2023-02-17T12:55:19;5.82;;;3.20;;
20154;SDS011;10238;49.556;10.956;2023-02-17T12:58:15;4.25;;;3.10;;
20154;SDS011;10238;49.556;10.956;2023-02-17T13:01:08;5.45;;;3.90;;
20154;SDS011;10238;49.556;10.956;2023-02-17T13:04:01;5.70;;;3.65;;
20154;SDS011;10238;49.556;10.956;2023-02-17T13:06:51;8.90;;;5.30;;
20154;SDS011;10238;49.556;10.956;2023-02-17T13:09:56;5.72;;;4.28;;
20154;SDS011;10238;49.556;10.956;2023-02-17T13:12:53;13.13;;;7.38;;
20154;SDS011;10238;49.556;10.956;2023-02-17T13:15:45;16.13;;;8.85;;
20154;SDS011;10238;49.556;10.956;2023-02-17T13:18:33;8.38;;;4.70;;
20154;SDS011;10238;49.556;10.956;2023-02-17T13:21:25;10.32;;;6.75;;
20154;SDS011;10238;49.556;10.956;2023-02-17T13:24:29;10.95;;;7.40;;
20154;SDS011;10238;49.556;10.956;2023-02-17T13:27:20;10.35;;;7.80;;
20154;SDS011;10238;49.556;10.956;2023-02-17T13:30:27;9.05;;;8.13;;
20154;SDS011;10238;49.556;10.956;2023-02-17T13:33:28;9.43;;;7.32;;
20154;SDS011;10238;49.556;10.956;2023-02-17T13:36:19;7.47;;;6.78;;
20154;SDS011;10238;49.556;10.956;2023-02-17T13:39:34;7.10;;;5.15;;
20154;SDS011;10238;49.556;10.956;2023-02-17T13:45:37;4.35;;;3.95;;
20154;SDS011;10238;49.556;10.956;2023-02-17T13:48:31;4.07;;;3.75;;
20154;SDS011;10238;49.556;10.956;2023-02-17T13:51:23;3.50;;;3.20;;
20154;SDS011;10238;49.556;10.956;2023-02-17T13:54:13;3.47;;;3.10;;
20154;SDS011;10238;49.556;10.956;2023-02-17T13:57:20;3.20;;;2.95;;
20154;SDS011;10238;49.556;10.956;2023-02-17T14:00:18;3.03;;;2.83;;
20154;SDS011;10238;49.556;10.956;2023-02-17T14:03:12;3.17;;;2.80;;
20154;SDS011;10238;49.556;10.956;2023-02-17T14:06:09;3.00;;;2.80;;
20154;SDS011;10238;49.556;10.956;2023-02-17T14:09:11;2.85;;;2.65;;
20154;SDS011;10238;49.556;10.956;2023-02-17T14:12:08;2.63;;;2.42;;
20154;SDS011;10238;49.556;10.956;2023-02-17T14:15:13;2.50;;;2.30;;
20154;SDS011;10238;49.556;10.956;2023-02-17T14:18:12;2.60;;;2.40;;
20154;SDS011;10238;49.556;10.956;2023-02-17T14:21:02;2.70;;;2.50;;
20154;SDS011;10238;49.556;10.956;2023-02-17T14:23:54;3.03;;;2.83;;
20154;SDS011;10238;49.556;10.956;2023-02-17T14:26:45;2.70;;;2.50;;
20154;SDS011;10238;49.556;10.956;2023-02-17T14:29:39;3.00;;;2.80;;
20154;SDS011;10238;49.556;10.956;2023-02-17T14:32:29;3.30;;;2.50;;
20154;SDS011;10238;49.556;10.956;2023-02-17T14:35:22;3.08;;;2.88;;
20154;SDS011;10238;49.556;10.956;2023-02-17T14:38:22;3.10;;;2.90;;
20154;SDS011;10238;49.556;10.956;2023-02-17T14:41:12;3.47;;;3.17;;
20154;SDS011;10238;49.556;10.956;2023-02-17T14:43:59;3.58;;;3.28;;
20154;SDS011;10238;49.556;10.956;2023-02-17T14:46:47;4.07;;;3.60;;
20154;SDS011;10238;49.556;10.956;2023-02-17T14:49:35;3.28;;;3.08;;
20154;SDS011;10238;49.556;10.956;2023-02-17T14:52:24;3.25;;;3.05;;
20154;SDS011;10238;49.556;10.956;2023-02-17T14:55:13;4.47;;;2.90;;
20154;SDS011;10238;49.556;10.956;2023-02-17T14:58:13;2.97;;;2.78;;
20154;SDS011;10238;49.556;10.956;2023-02-17T15:01:05;2.70;;;2.60;;
20154;SDS011;10238;49.556;10.956;2023-02-17T15:03:55;2.85;;;2.65;;
20154;SDS011;10238;49.556;10.956;2023-02-17T15:06:44;3.35;;;3.10;;
20154;SDS011;10238;49.556;10.956;2023-02-17T15:12:26;2.63;;;2.42;;
20154;SDS011;10238;49.556;10.956;2023-02-17T15:15:14;3.28;;;3.08;;
20154;SDS011;10238;49.556;10.956;2023-02-17T15:18:03;4.30;;;4.00;;
20154;SDS011;10238;49.556;10.956;2023-02-17T15:20:51;4.10;;;3.80;;
20154;SDS011;10238;49.556;10.956;2023-02-17T15:23:39;4.13;;;3.80;;
20154;SDS011;10238;49.556;10.956;2023-02-17T15:26:29;3.50;;;2.95;;
20154;SDS011;10238;49.556;10.956;2023-02-17T15:29:17;3.45;;;3.25;;
20154;SDS011;10238;49.556;10.956;2023-02-17T15:32:09;3.15;;;2.95;;
20154;SDS011;10238;49.556;10.956;2023-02-17T15:35:08;2.60;;;2.40;;
20154;SDS011;10238;49.556;10.956;2023-02-17T15:38:02;2.80;;;2.60;;
20154;SDS011;10238;49.556;10.956;2023-02-17T15:40:50;3.47;;;3.25;;
20154;SDS011;10238;49.556;10.956;2023-02-17T15:43:42;2.95;;;2.75;;
20154;SDS011;10238;49.556;10.956;2023-02-17T15:46:33;2.92;;;2.72;;
20154;SDS011;10238;49.556;10.956;2023-02-17T15:49:21;3.40;;;2.90;;
20154;SDS011;10238;49.556;10.956;2023-02-17T15:52:09;3.80;;;2.85;;
20154;SDS011;10238;49.556;10.956;2023-02-17T15:54:58;2.67;;;2.58;;
20154;SDS011;10238;49.556;10.956;2023-02-17T15:57:46;2.63;;;2.35;;
20154;SDS011;10238;49.556;10.956;2023-02-17T16:00:39;2.95;;;2.60;;
20154;SDS011;10238;49.556;10.956;2023-02-17T16:03:30;2.93;;;2.73;;
20154;SDS011;10238;49.556;10.956;2023-02-17T16:06:18;4.30;;;2.88;;
20154;SDS011;10238;49.556;10.956;2023-02-17T16:09:06;4.20;;;3.97;;
20154;SDS011;10238;49.556;10.956;2023-02-17T16:11:55;3.20;;;3.00;;
20154;SDS011;10238;49.556;10.956;2023-02-17T16:14:45;3.42;;;3.22;;
20154;SDS011;10238;49.556;10.956;2023-02-17T16:17:34;4.35;;;3.50;;
20154;SDS011;10238;49.556;10.956;2023-02-17T16:20:22;4.07;;;3.67;;
20154;SDS011;10238;49.556;10.956;2023-02-17T16:23:12;4.15;;;3.80;;
20154;SDS011;10238;49.556;10.956;2023-02-17T16:25:59;3.88;;;3.58;;
20154;SDS011;10238;49.556;10.956;2023-02-17T16:28:48;3.47;;;3.17;;
20154;SDS011;10238;49.556;10.956;2023-02-17T16:31:35;3.65;;;3.45;;
20154;SDS011;10238;49.556;10.956;2023-02-17T16:34:25;4.15;;;3.85;;
20154;SDS011;10238;49.556;10.956;2023-02-17T16:37:17;3.55;;;3.35;;
20154;SDS011;10238;49.556;10.956;2023-02-17T16:40:05;4.25;;;3.50;;
20154;SDS011;10238;49.556;10.956;2023-02-17T16:43:01;3.47;;;3.17;;
20154;SDS011;10238;49.556;10.956;2023-02-17T16:45:51;3.15;;;2.92;;
20154;SDS011;10238;49.556;10.956;2023-02-17T16:48:42;3.20;;;3.00;;
20154;SDS011;10238;49.556;10.956;2023-02-17T16:51:31;3.00;;;2.80;;
20154;SDS011;10238;49.556;10.956;2023-02-17T16:54:18;2.88;;;2.67;;
20154;SDS011;10238;49.556;10.956;2023-02-17T16:57:09;2.40;;;2.30;;
20154;SDS011;10238;49.556;10.956;2023-02-17T17:00:04;2.80;;;2.50;;
20154;SDS011;10238;49.556;10.956;2023-02-17T17:02:53;3.03;;;2.83;;
20154;SDS011;10238;49.556;10.956;2023-02-17T17:05:42;2.75;;;2.55;;
20154;SDS011;10238;49.556;10.956;2023-02-17T17:08:32;6.05;;;5.40;;
20154;SDS011;10238;49.556;10.956;2023-02-17T17:11:20;5.20;;;4.78;;
20154;SDS011;10238;49.556;10.956;2023-02-17T17:14:10;6.57;;;6.00;;